Terminal Aerodrome Forecast
Issued by NWS Pueblo, CO

Home | Current Version | Previous Version | Text Only | Print | Product List | Glossary On
Versions: 1 2 3 4 5 6 7 8 9 10 11 12 13 14 15 16 17 18 19 20 21 22 23 24 25 26 27 28 29 30 31 32
000
FTUS45 KPUB 290600 AAA
TAFCOS
TAF AMD
KCOS 290600Z 2906/3006 34009KT P6SM FEW035 SCT080 BKN250
     FM290900 34009KT P6SM BKN060
     FM291300 36008KT P6SM SCT020 BKN035
     FM291700 13008KT P6SM SCT020 BKN050
     FM292100 17009KT P6SM SCT050 BKN140
     FM300300 15005KT P6SM SCT030 BKN050=

USA.gov is the U.S. government's official web portal to all federal, state and local government web resources and services.